Time;durP1;ratioP1;P1;durP2;ratioP2;P2;SDS_P1;SDS_P2;PMS_P1;PMS_P2;Temp;Humidity;BMP_temperature;BMP_pressure;BME280_temperature;BME280_humidity;BME280_pressure;Samples;Min_cycle;Max_cycle;Signal;HPM_P1;HPM_P2
2023/05/22 00:01:05;;;;;;;10.83;9.83;;;21.60;76.30;;;;;;5072843;28;20193;-71
2023/05/22 00:03:33;;;;;;;10.93;9.83;;;21.50;76.10;;;;;;5072701;28;20307;-72
2023/05/22 00:06:01;;;;;;;11.33;10.30;;;21.50;76.30;;;;;;5073541;28;20216;-72
2023/05/22 00:08:28;;;;;;;11.63;10.53;;;21.50;76.30;;;;;;5073191;28;20229;-72
2023/05/22 00:10:55;;;;;;;10.87;9.87;;;21.50;76.20;;;;;;5072898;28;20236;-73
2023/05/22 00:13:22;;;;;;;10.57;9.33;;;21.50;76.10;;;;;;5072301;28;20198;-72
2023/05/22 00:15:49;;;;;;;11.30;10.10;;;21.40;76.10;;;;;;5073156;28;20633;-72
2023/05/22 00:18:16;;;;;;;11.40;10.30;;;21.40;76.20;;;;;;5072806;28;20193;-72
2023/05/22 00:20:45;;;;;;;11.23;10.17;;;21.40;76.20;;;;;;5072966;28;20278;-71
2023/05/22 00:23:14;;;;;;;11.13;10.13;;;21.40;76.20;;;;;;5073015;28;20197;-72
2023/05/22 00:25:41;;;;;;;10.90;9.87;;;21.40;76.20;;;;;;5045848;28;20233;-71
2023/05/22 00:28:07;;;;;;;11.37;10.27;;;21.40;76.10;;;;;;5071012;28;20233;-72
2023/05/22 00:30:34;;;;;;;10.73;9.73;;;21.40;76.10;;;;;;5071818;28;20223;-71
2023/05/22 00:33:02;;;;;;;11.77;10.20;;;21.40;76.10;;;;;;5073014;28;20197;-72
2023/05/22 00:35:30;;;;;;;10.90;9.90;;;21.20;76.10;;;;;;5072992;28;20201;-72
2023/05/22 00:37:57;;;;;;;10.47;9.53;;;21.20;76.30;;;;;;5072491;28;20196;-72
2023/05/22 00:40:26;;;;;;;10.40;9.30;;;21.20;76.30;;;;;;5072548;28;20208;-72
2023/05/22 00:42:52;;;;;;;10.17;9.17;;;21.20;76.50;;;;;;5072712;28;20202;-72
2023/05/22 00:45:21;;;;;;;10.23;9.23;;;21.20;76.40;;;;;;5072522;28;20226;-72
2023/05/22 00:47:48;;;;;;;10.50;9.50;;;21.10;76.30;;;;;;5072678;28;20225;-72
2023/05/22 00:50:15;;;;;;;12.43;10.00;;;21.10;76.50;;;;;;5072748;28;20820;-71
2023/05/22 00:52:43;;;;;;;11.17;10.17;;;21.00;76.50;;;;;;5072818;28;20201;-71
2023/05/22 00:55:11;;;;;;;10.00;9.00;;;21.00;76.60;;;;;;5072558;28;20205;-72
2023/05/22 00:57:41;;;;;;;10.17;9.17;;;21.00;76.60;;;;;;5054072;28;20717;-71
2023/05/22 01:00:10;;;;;;;9.90;9.00;;;21.00;76.40;;;;;;5064459;28;20208;-72
2023/05/22 01:02:38;;;;;;;10.77;9.87;;;21.00;76.10;;;;;;5072051;28;20689;-72
2023/05/22 01:05:05;;;;;;;9.97;8.93;;;20.90;76.30;;;;;;5072106;28;20208;-72
2023/05/22 01:07:36;;;;;;;11.40;10.30;;;20.90;76.50;;;;;;5072036;28;20308;-72
2023/05/22 01:10:04;;;;;;;11.53;10.43;;;20.80;76.40;;;;;;5071846;28;20202;-71
2023/05/22 01:12:38;;;;;;;9.97;8.97;;;20.80;76.30;;;;;;5071769;28;20213;-72
2023/05/22 01:15:16;;;;;;;10.30;9.40;;;20.80;76.30;;;;;;5071741;28;20300;-72
2023/05/22 01:17:51;;;;;;;10.47;9.47;;;20.80;76.40;;;;;;5056865;28;20196;-72
2023/05/22 01:20:25;;;;;;;11.33;10.27;;;20.70;76.40;;;;;;5071386;28;20263;-72
2023/05/22 01:23:39;;;;;;;10.77;9.77;;;20.70;76.50;;;;;;5071212;28;20228;-73
2023/05/22 01:26:39;;;;;;;10.97;9.10;;;20.60;76.80;;;;;;5057240;28;20233;-71
2023/05/22 01:29:18;;;;;;;10.27;9.37;;;20.60;76.60;;;;;;5053019;28;20228;-72
2023/05/22 01:31:48;;;;;;;10.30;9.40;;;20.60;76.40;;;;;;5067174;28;20201;-72
2023/05/22 01:34:17;;;;;;;9.03;8.13;;;20.50;76.50;;;;;;5062888;28;20203;-72
2023/05/22 01:36:46;;;;;;;9.97;9.07;;;20.50;76.50;;;;;;5053174;28;20212;-72
2023/05/22 01:39:14;;;;;;;10.17;9.27;;;20.50;76.50;;;;;;5057023;28;20198;-72
2023/05/22 01:41:41;;;;;;;11.27;10.17;;;20.40;76.70;;;;;;5071394;28;20206;-72
2023/05/22 01:44:08;;;;;;;10.07;9.13;;;20.40;76.70;;;;;;5071439;28;20201;-72
2023/05/22 01:46:35;;;;;;;10.77;9.47;;;20.40;76.70;;;;;;5071570;28;20205;-72
2023/05/22 01:49:03;;;;;;;10.83;9.83;;;20.40;76.70;;;;;;5071070;28;20224;-72
2023/05/22 01:51:51;;;;;;;11.30;10.20;;;20.40;76.90;;;;;;5071153;28;20293;-71
2023/05/22 01:54:24;;;;;;;10.40;9.47;;;20.30;77.00;;;;;;5071115;28;20228;-71
2023/05/22 01:56:55;;;;;;;11.87;10.77;;;20.30;77.00;;;;;;5071289;28;20198;-70
2023/05/22 01:59:30;;;;;;;10.37;9.37;;;20.30;77.00;;;;;;5071133;28;20193;-72
2023/05/22 02:02:00;;;;;;;11.70;10.07;;;20.20;77.10;;;;;;5071591;28;20192;-71
2023/05/22 02:04:31;;;;;;;10.87;9.87;;;20.20;77.10;;;;;;5071265;28;20197;-72
2023/05/22 02:06:59;;;;;;;10.73;9.73;;;20.20;77.20;;;;;;5070998;28;20215;-71
2023/05/22 02:09:29;;;;;;;9.70;8.80;;;20.10;77.10;;;;;;5068776;28;20225;-71
2023/05/22 02:11:57;;;;;;;10.80;9.40;;;20.10;77.30;;;;;;5071423;28;20224;-72
2023/05/22 02:14:26;;;;;;;10.47;9.57;;;20.10;77.30;;;;;;5070787;28;20202;-72
2023/05/22 02:16:53;;;;;;;10.30;9.37;;;20.10;77.20;;;;;;5070154;28;20926;-72
2023/05/22 02:19:20;;;;;;;9.57;8.67;;;20.10;77.20;;;;;;5070662;28;20209;-72
2023/05/22 02:21:48;;;;;;;10.20;9.27;;;20.10;77.10;;;;;;5070688;28;20207;-72
2023/05/22 02:24:16;;;;;;;10.23;9.33;;;20.10;77.00;;;;;;5070377;28;20229;-72
2023/05/22 02:26:43;;;;;;;10.63;9.63;;;20.00;76.40;;;;;;5070435;28;20656;-71
2023/05/22 02:29:11;;;;;;;10.33;9.30;;;19.90;76.50;;;;;;5069164;28;20227;-71
2023/05/22 02:31:38;;;;;;;10.70;9.67;;;19.80;76.70;;;;;;5070104;28;20681;-71
2023/05/22 02:34:05;;;;;;;12.17;9.03;;;19.70;76.70;;;;;;5070231;28;20197;-71
2023/05/22 02:36:32;;;;;;;10.17;9.17;;;19.70;76.90;;;;;;5069467;28;20683;-71
2023/05/22 02:39:00;;;;;;;10.03;9.03;;;19.70;76.80;;;;;;5070119;28;20221;-71
2023/05/22 02:41:27;;;;;;;10.23;9.07;;;19.70;76.70;;;;;;5069994;28;20197;-71
2023/05/22 02:43:54;;;;;;;10.40;8.87;;;19.80;76.60;;;;;;5070407;28;20197;-72
2023/05/22 02:46:20;;;;;;;10.97;9.90;;;19.80;76.40;;;;;;5070239;28;20215;-72
2023/05/22 02:48:47;;;;;;;9.90;8.53;;;19.80;76.30;;;;;;5069938;28;20217;-72
2023/05/22 02:51:15;;;;;;;9.77;8.77;;;19.80;76.40;;;;;;5070377;28;20209;-71
2023/05/22 02:53:41;;;;;;;9.77;8.87;;;19.80;76.40;;;;;;5069861;28;20288;-71
2023/05/22 02:56:10;;;;;;;10.27;9.37;;;19.80;76.10;;;;;;5069387;28;20208;-71
2023/05/22 02:58:39;;;;;;;9.90;9.00;;;19.80;76.50;;;;;;5069956;28;20211;-71
2023/05/22 03:01:07;;;;;;;9.77;8.87;;;19.80;76.40;;;;;;5017937;28;20193;-72
2023/05/22 03:03:34;;;;;;;10.57;9.47;;;19.80;76.40;;;;;;5063883;28;20281;-72
2023/05/22 03:06:02;;;;;;;10.40;9.30;;;19.80;77.20;;;;;;5069838;28;20197;-72
2023/05/22 03:08:30;;;;;;;10.33;9.40;;;19.80;76.50;;;;;;5068862;28;20221;-72
2023/05/22 03:10:58;;;;;;;9.90;8.93;;;19.70;76.50;;;;;;5069567;28;20197;-72
2023/05/22 03:13:26;;;;;;;10.83;9.20;;;19.70;76.40;;;;;;5069942;28;20199;-72
2023/05/22 03:15:53;;;;;;;10.20;9.23;;;19.70;76.40;;;;;;5069971;28;20216;-72
2023/05/22 03:18:20;;;;;;;10.07;9.17;;;19.70;76.50;;;;;;5069447;28;20645;-71
2023/05/22 03:20:47;;;;;;;10.53;9.53;;;19.70;76.50;;;;;;5070128;28;20207;-71
2023/05/22 03:23:14;;;;;;;10.63;9.63;;;19.70;76.40;;;;;;5069787;28;20568;-71
2023/05/22 03:25:41;;;;;;;10.47;9.47;;;19.70;76.20;;;;;;5069806;28;20245;-73
2023/05/22 03:28:08;;;;;;;10.77;9.80;;;19.60;76.30;;;;;;5069701;28;20538;-72
2023/05/22 03:30:36;;;;;;;11.47;10.37;;;19.60;76.50;;;;;;5069767;28;20225;-72
2023/05/22 03:33:03;;;;;;;11.20;9.87;;;19.60;76.60;;;;;;5069731;28;20205;-73
2023/05/22 03:35:29;;;;;;;11.23;10.00;;;19.60;76.70;;;;;;5069710;28;20197;-72
2023/05/22 03:37:56;;;;;;;10.53;9.60;;;19.60;76.50;;;;;;5069495;28;20224;-72
2023/05/22 03:40:23;;;;;;;11.07;9.93;;;19.60;76.50;;;;;;5069819;28;20633;-72
2023/05/22 03:42:51;;;;;;;10.17;9.27;;;19.60;76.50;;;;;;5069748;28;20649;-72
2023/05/22 03:45:18;;;;;;;10.80;9.77;;;19.50;76.40;;;;;;5069877;28;20715;-72
2023/05/22 03:47:46;;;;;;;10.07;9.17;;;19.50;76.60;;;;;;5069377;28;20565;-72
2023/05/22 03:50:13;;;;;;;11.17;10.10;;;19.50;76.90;;;;;;5069765;28;20223;-72
2023/05/22 03:52:39;;;;;;;10.90;9.77;;;19.50;77.10;;;;;;5069636;28;20288;-72
2023/05/22 03:55:08;;;;;;;10.47;9.47;;;19.50;77.20;;;;;;5069642;28;20659;-72
2023/05/22 03:57:35;;;;;;;11.87;9.70;;;19.50;77.20;;;;;;5068589;28;20809;-72
2023/05/22 04:00:08;;;;;;;10.63;9.53;;;19.50;77.30;;;;;;5068156;28;20706;-71
2023/05/22 04:02:37;;;;;;;9.97;8.97;;;19.50;77.30;;;;;;5068452;28;20247;-72
2023/05/22 04:05:06;;;;;;;10.47;9.37;;;19.50;77.50;;;;;;5067858;28;20216;-71
2023/05/22 04:07:33;;;;;;;10.37;9.37;;;19.50;77.50;;;;;;5068380;28;20193;-72
2023/05/22 04:10:00;;;;;;;9.80;8.90;;;19.50;77.50;;;;;;5069212;28;20237;-72
2023/05/22 04:12:27;;;;;;;10.97;9.40;;;19.50;77.50;;;;;;5017357;28;20207;-72
2023/05/22 04:14:54;;;;;;;9.17;8.27;;;19.50;77.50;;;;;;5069056;28;20284;-71
2023/05/22 04:17:21;;;;;;;10.57;9.40;;;19.50;77.60;;;;;;5069227;28;20194;-72
2023/05/22 04:19:47;;;;;;;10.07;9.10;;;19.50;77.70;;;;;;5068727;28;20217;-72
2023/05/22 04:22:16;;;;;;;10.00;9.00;;;19.50;77.60;;;;;;5069495;28;20204;-71
2023/05/22 04:24:43;;;;;;;10.53;9.17;;;19.60;77.80;;;;;;5069224;28;20233;-72
2023/05/22 04:27:11;;;;;;;11.90;9.90;;;19.60;77.70;;;;;;5068867;28;20663;-72
2023/05/22 04:29:40;;;;;;;11.87;10.67;;;19.60;77.80;;;;;;5068976;28;20223;-73
2023/05/22 04:32:09;;;;;;;13.37;10.33;;;19.60;77.80;;;;;;5069081;28;20205;-72
2023/05/22 04:34:36;;;;;;;10.43;9.47;;;19.60;78.20;;;;;;5068028;28;20201;-72
2023/05/22 04:37:03;;;;;;;10.00;9.10;;;19.70;78.30;;;;;;5051597;28;20204;-72
2023/05/22 04:39:33;;;;;;;11.70;10.30;;;19.70;78.50;;;;;;5058531;28;20738;-72
2023/05/22 04:42:04;;;;;;;12.53;10.80;;;19.80;78.80;;;;;;5053237;28;20300;-72
2023/05/22 04:44:33;;;;;;;10.50;9.50;;;19.80;78.50;;;;;;5052933;28;20232;-72
2023/05/22 04:47:00;;;;;;;11.00;9.77;;;19.80;78.50;;;;;;5052804;28;20209;-73
2023/05/22 04:49:27;;;;;;;11.07;10.07;;;19.90;78.70;;;;;;5053128;28;20586;-72
2023/05/22 04:51:54;;;;;;;10.97;9.87;;;19.90;78.60;;;;;;5068584;28;20221;-72
2023/05/22 04:54:21;;;;;;;12.63;10.97;;;20.00;78.70;;;;;;5074056;28;20201;-72
2023/05/22 04:56:50;;;;;;;13.27;11.43;;;20.10;78.90;;;;;;5073633;28;20205;-72
2023/05/22 04:59:18;;;;;;;11.07;9.97;;;20.10;78.80;;;;;;5072812;28;20295;-72
2023/05/22 05:01:46;;;;;;;11.50;10.40;;;20.10;78.80;;;;;;5072562;28;20213;-72
2023/05/22 05:04:13;;;;;;;11.43;10.33;;;20.20;78.90;;;;;;5073297;28;20208;-72
2023/05/22 05:06:40;;;;;;;11.87;10.67;;;20.10;78.90;;;;;;5073352;28;20200;-73
2023/05/22 05:09:07;;;;;;;12.13;10.83;;;20.10;79.00;;;;;;5020650;28;20213;-72
2023/05/22 05:11:34;;;;;;;12.00;10.77;;;20.10;79.30;;;;;;5073155;28;20208;-72
2023/05/22 05:14:03;;;;;;;12.60;11.30;;;20.10;79.50;;;;;;5072988;28;20232;-72
2023/05/22 05:16:29;;;;;;;11.03;10.03;;;20.10;79.40;;;;;;5072677;28;20692;-72
2023/05/22 05:18:56;;;;;;;11.67;10.47;;;20.20;79.60;;;;;;5072208;28;20783;-72
2023/05/22 05:21:26;;;;;;;11.07;9.97;;;20.20;79.60;;;;;;5073444;28;20639;-71
2023/05/22 05:23:53;;;;;;;11.60;10.57;;;20.20;79.60;;;;;;5073016;28;20240;-72
2023/05/22 05:26:22;;;;;;;11.27;10.27;;;20.30;79.70;;;;;;5072494;28;20324;-72
2023/05/22 05:28:50;;;;;;;11.97;10.87;;;20.30;79.60;;;;;;5072353;28;20219;-73
2023/05/22 05:31:18;;;;;;;12.17;10.83;;;20.40;79.80;;;;;;5072237;28;20207;-73
2023/05/22 05:33:45;;;;;;;12.57;11.27;;;20.50;79.90;;;;;;5071186;28;20201;-73
2023/05/22 05:36:12;;;;;;;12.10;10.83;;;20.50;79.80;;;;;;5071187;28;20283;-72
2023/05/22 05:38:39;;;;;;;12.70;11.27;;;20.60;79.60;;;;;;5072325;28;20205;-71
2023/05/22 05:41:06;;;;;;;15.87;11.33;;;20.70;79.40;;;;;;5072702;28;20764;-71
2023/05/22 05:43:32;;;;;;;12.20;11.10;;;20.70;79.10;;;;;;5071093;28;20204;-72
2023/05/22 05:45:59;;;;;;;12.83;11.47;;;20.80;79.30;;;;;;5070492;28;20205;-73
2023/05/22 05:48:28;;;;;;;11.77;10.57;;;20.80;79.40;;;;;;5067942;28;20237;-73
2023/05/22 05:50:55;;;;;;;13.77;12.37;;;20.80;79.50;;;;;;5061480;28;20564;-72
2023/05/22 05:53:21;;;;;;;13.00;11.67;;;21.00;79.80;;;;;;5071129;28;20537;-72
2023/05/22 05:55:48;;;;;;;13.40;12.10;;;21.00;79.90;;;;;;5071733;28;20212;-73
2023/05/22 05:58:15;;;;;;;12.67;11.33;;;21.10;80.30;;;;;;5070649;28;20297;-72
2023/05/22 06:00:42;;;;;;;12.53;11.23;;;21.10;80.20;;;;;;5071261;28;20200;-72
2023/05/22 06:03:09;;;;;;;10.73;9.67;;;21.20;80.80;;;;;;5070948;28;20211;-72
2023/05/22 06:05:37;;;;;;;11.47;10.27;;;21.30;79.60;;;;;;5071183;28;20209;-73
2023/05/22 06:08:05;;;;;;;12.57;10.80;;;21.50;79.70;;;;;;5070720;28;20202;-73
2023/05/22 06:10:32;;;;;;;12.60;10.47;;;21.60;79.70;;;;;;5070803;28;20225;-72
2023/05/22 06:12:59;;;;;;;11.67;10.47;;;21.70;79.70;;;;;;5070597;28;20232;-72
2023/05/22 06:15:26;;;;;;;11.90;10.73;;;21.70;79.80;;;;;;5069586;28;20294;-73
2023/05/22 06:17:53;;;;;;;14.67;11.03;;;21.80;80.00;;;;;;5070231;28;20201;-73
2023/05/22 06:20:21;;;;;;;11.50;10.40;;;21.90;80.10;;;;;;5065491;28;20197;-72
2023/05/22 06:22:49;;;;;;;10.63;9.57;;;22.00;80.00;;;;;;5050542;28;20205;-73
2023/05/22 06:25:16;;;;;;;10.43;9.33;;;22.10;79.40;;;;;;5063137;28;20629;-72
2023/05/22 06:27:43;;;;;;;10.37;9.37;;;22.10;79.10;;;;;;5059900;28;20198;-72
2023/05/22 06:30:11;;;;;;;10.37;9.23;;;22.20;79.00;;;;;;5062841;28;20223;-73
2023/05/22 06:32:38;;;;;;;9.77;8.83;;;22.30;78.30;;;;;;5068450;28;20687;-73
2023/05/22 06:35:05;;;;;;;9.43;8.53;;;22.40;78.30;;;;;;5069888;28;20676;-71
2023/05/22 06:37:34;;;;;;;11.47;8.33;;;22.50;78.60;;;;;;5068270;28;20205;-72
2023/05/22 06:40:02;;;;;;;11.73;9.40;;;22.60;78.10;;;;;;5067963;28;20260;-71
2023/05/22 06:42:29;;;;;;;9.83;8.93;;;22.70;77.40;;;;;;5052203;28;20695;-72
2023/05/22 06:44:56;;;;;;;9.53;8.73;;;22.80;77.10;;;;;;5069709;28;20215;-73
2023/05/22 06:47:23;;;;;;;9.57;8.53;;;22.80;77.10;;;;;;5070445;28;20290;-72
2023/05/22 06:49:50;;;;;;;9.43;8.53;;;22.80;76.30;;;;;;5037927;28;20227;-71
2023/05/22 06:52:17;;;;;;;9.97;8.83;;;22.80;76.30;;;;;;5057028;28;20205;-72
2023/05/22 06:54:43;;;;;;;10.40;9.17;;;22.90;76.30;;;;;;5070327;28;20316;-71
2023/05/22 06:57:12;;;;;;;12.13;9.20;;;22.90;76.00;;;;;;5070985;28;20775;-72
2023/05/22 06:59:39;;;;;;;10.50;9.47;;;23.00;76.10;;;;;;5054005;28;20292;-71
2023/05/22 07:02:06;;;;;;;9.60;8.70;;;23.00;75.80;;;;;;5051317;28;20201;-73
2023/05/22 07:04:33;;;;;;;13.50;9.60;;;23.20;76.20;;;;;;5052406;28;20212;-76
2023/05/22 07:07:00;;;;;;;10.60;9.60;;;23.20;75.20;;;;;;5069475;28;20271;-71
2023/05/22 07:09:27;;;;;;;10.80;9.80;;;23.30;75.20;;;;;;5088688;28;20227;-71
2023/05/22 07:11:54;;;;;;;11.00;9.90;;;23.30;75.20;;;;;;5093422;28;20231;-72
2023/05/22 07:14:22;;;;;;;10.67;9.70;;;23.40;74.90;;;;;;5093510;28;20217;-72
2023/05/22 07:16:49;;;;;;;11.50;10.40;;;23.50;74.70;;;;;;5094392;28;20192;-73
2023/05/22 07:19:16;;;;;;;11.80;9.53;;;23.50;74.40;;;;;;5085301;28;20288;-72
2023/05/22 07:21:43;;;;;;;11.03;10.03;;;23.60;74.60;;;;;;5070105;28;20254;-72
2023/05/22 07:24:09;;;;;;;10.50;9.43;;;23.80;74.30;;;;;;5069693;28;20197;-72
2023/05/22 07:26:37;;;;;;;11.60;9.67;;;23.90;74.00;;;;;;5070292;28;20218;-72
2023/05/22 07:29:04;;;;;;;12.20;10.60;;;23.90;73.50;;;;;;5069929;28;20231;-71
2023/05/22 07:31:33;;;;;;;11.10;9.53;;;24.00;73.50;;;;;;5069416;28;20207;-72
2023/05/22 07:34:00;;;;;;;10.80;9.70;;;24.10;73.40;;;;;;5069400;28;20234;-72
2023/05/22 07:36:27;;;;;;;10.40;9.43;;;24.20;72.40;;;;;;5049976;28;20216;-72
2023/05/22 07:38:53;;;;;;;12.60;10.63;;;24.10;71.90;;;;;;5053594;28;20200;-72
2023/05/22 07:41:21;;;;;;;10.73;9.80;;;24.10;71.90;;;;;;5062795;28;20197;-72
2023/05/22 07:43:48;;;;;;;10.87;9.77;;;24.10;71.90;;;;;;5050133;28;20205;-73
2023/05/22 07:46:15;;;;;;;10.13;9.23;;;24.20;72.00;;;;;;5069477;28;20566;-73
2023/05/22 07:48:43;;;;;;;10.43;9.23;;;24.30;71.30;;;;;;5069874;28;20204;-73
2023/05/22 07:51:12;;;;;;;11.10;9.80;;;24.40;71.50;;;;;;5070203;28;20320;-73
2023/05/22 07:53:39;;;;;;;10.57;9.53;;;24.50;71.30;;;;;;5069120;28;20668;-73
2023/05/22 07:56:06;;;;;;;9.93;8.97;;;24.50;71.10;;;;;;5069237;28;20197;-72
2023/05/22 07:58:33;;;;;;;10.90;9.77;;;24.60;71.50;;;;;;5069380;28;20284;-72
2023/05/22 08:01:01;;;;;;;10.47;9.47;;;24.70;71.10;;;;;;5069424;28;20192;-71
2023/05/22 08:03:28;;;;;;;10.37;9.37;;;24.80;70.70;;;;;;5070155;28;20270;-73
2023/05/22 08:05:56;;;;;;;13.13;8.93;;;24.90;71.00;;;;;;5069732;28;20292;-72
2023/05/22 08:08:23;;;;;;;10.20;9.20;;;24.90;71.00;;;;;;5069128;28;20197;-72
2023/05/22 08:10:50;;;;;;;10.57;9.53;;;25.00;70.50;;;;;;5068785;28;20250;-73
2023/05/22 08:13:18;;;;;;;11.03;9.87;;;25.20;70.50;;;;;;5068501;28;20278;-72
2023/05/22 08:15:45;;;;;;;11.10;9.67;;;25.30;70.10;;;;;;5073411;28;20211;-72
2023/05/22 08:18:13;;;;;;;10.77;9.77;;;25.40;69.70;;;;;;5073239;28;20197;-72
2023/05/22 08:20:40;;;;;;;10.00;9.00;;;25.60;69.70;;;;;;5020672;28;20284;-72
2023/05/22 08:23:08;;;;;;;10.53;9.53;;;25.70;69.50;;;;;;5073712;28;20213;-72
2023/05/22 08:25:35;;;;;;;10.97;9.20;;;25.70;68.10;;;;;;5072934;28;20783;-72
2023/05/22 08:28:02;;;;;;;9.90;8.90;;;25.60;67.20;;;;;;5073228;28;20205;-72
2023/05/22 08:30:29;;;;;;;10.13;9.13;;;25.60;66.50;;;;;;5072750;28;20225;-72
2023/05/22 08:32:56;;;;;;;8.97;8.17;;;25.50;66.40;;;;;;5073674;28;20204;-72
2023/05/22 08:35:22;;;;;;;9.20;8.40;;;25.60;67.30;;;;;;5072371;28;20221;-71
2023/05/22 08:37:49;;;;;;;9.33;8.33;;;25.70;66.90;;;;;;5072476;28;20204;-73
2023/05/22 08:40:20;;;;;;;9.73;8.73;;;25.80;66.80;;;;;;5072719;28;20189;-72
2023/05/22 08:42:47;;;;;;;9.83;9.03;;;25.90;66.60;;;;;;5057592;28;20606;-72
2023/05/22 08:45:16;;;;;;;9.83;8.93;;;25.80;66.30;;;;;;5056924;28;20592;-72
2023/05/22 08:47:44;;;;;;;10.07;9.10;;;25.80;66.50;;;;;;5056548;28;20205;-72
2023/05/22 08:50:12;;;;;;;9.43;8.63;;;25.90;66.60;;;;;;5065517;28;20230;-72
2023/05/22 08:52:47;;;;;;;11.00;9.90;;;26.00;66.70;;;;;;5066983;28;20208;-72
2023/05/22 08:55:15;;;;;;;10.67;9.57;;;26.00;65.60;;;;;;5056593;28;20719;-71
2023/05/22 08:57:44;;;;;;;10.77;9.77;;;26.20;66.10;;;;;;5053120;28;20214;-72
2023/05/22 09:00:12;;;;;;;9.83;8.83;;;26.30;66.70;;;;;;5071529;28;20195;-73
2023/05/22 09:02:39;;;;;;;11.80;9.43;;;26.50;66.30;;;;;;5071786;28;20244;-72
2023/05/22 09:05:09;;;;;;;10.13;9.23;;;26.70;66.00;;;;;;5072311;28;20216;-72
2023/05/22 09:07:36;;;;;;;10.57;9.50;;;26.70;65.60;;;;;;5072703;28;20438;-72
2023/05/22 09:10:06;;;;;;;10.00;9.07;;;26.90;64.40;;;;;;5072383;28;20222;-72
2023/05/22 09:12:33;;;;;;;9.93;9.03;;;26.90;64.40;;;;;;5064745;28;20206;-72
2023/05/22 09:15:08;;;;;;;11.40;9.20;;;27.10;65.40;;;;;;5072480;28;20754;-72
2023/05/22 09:17:38;;;;;;;10.03;9.03;;;27.20;63.90;;;;;;5072486;28;20637;-72
2023/05/22 09:20:06;;;;;;;10.43;9.37;;;27.30;63.90;;;;;;5071943;28;20213;-72
2023/05/22 09:22:38;;;;;;;12.00;10.07;;;27.20;63.30;;;;;;5071096;28;20207;-71
2023/05/22 09:25:05;;;;;;;10.60;9.60;;;27.30;63.30;;;;;;5071435;28;20255;-73
2023/05/22 09:27:33;;;;;;;10.40;9.00;;;27.30;63.90;;;;;;5071186;28;20303;-73
2023/05/22 09:30:00;;;;;;;11.13;9.97;;;27.50;63.50;;;;;;5072259;28;20812;-72
2023/05/22 09:32:30;;;;;;;10.30;9.30;;;27.60;63.30;;;;;;5072366;28;20213;-72
2023/05/22 09:35:03;;;;;;;9.73;8.83;;;27.80;63.50;;;;;;5063546;28;20207;-72
2023/05/22 09:37:34;;;;;;;11.50;10.40;;;28.00;63.60;;;;;;5052560;28;20205;-71
2023/05/22 09:40:05;;;;;;;11.10;10.07;;;28.00;61.40;;;;;;5052527;28;20256;-73
2023/05/22 09:42:33;;;;;;;11.87;10.33;;;28.00;61.10;;;;;;5052229;28;20240;-72
2023/05/22 09:45:03;;;;;;;11.27;9.90;;;27.90;61.00;;;;;;5052004;28;20219;-72
2023/05/22 09:47:32;;;;;;;12.00;10.80;;;28.00;61.00;;;;;;5034046;28;20559;-72
2023/05/22 09:50:00;;;;;;;10.13;9.20;;;27.90;61.20;;;;;;5052280;28;20234;-72
2023/05/22 09:52:29;;;;;;;11.60;10.50;;;27.90;62.50;;;;;;5051884;28;20218;-72
2023/05/22 09:54:57;;;;;;;9.53;8.73;;;28.00;60.90;;;;;;5051689;28;20226;-72
2023/05/22 09:57:25;;;;;;;10.00;9.00;;;28.00;61.30;;;;;;5051687;28;20235;-72
2023/05/22 09:59:56;;;;;;;10.27;9.27;;;28.10;60.60;;;;;;5052004;28;20212;-72
2023/05/22 10:02:24;;;;;;;11.10;10.00;;;28.10;60.90;;;;;;5051578;28;20284;-71
2023/05/22 10:04:53;;;;;;;12.20;9.50;;;28.10;60.20;;;;;;5051773;28;20211;-71
2023/05/22 10:07:22;;;;;;;10.73;9.63;;;28.20;60.70;;;;;;5051440;28;20300;-73
2023/05/22 10:09:55;;;;;;;12.63;10.10;;;28.30;60.70;;;;;;5051485;28;20209;-72
2023/05/22 10:12:23;;;;;;;11.60;10.40;;;28.30;59.00;;;;;;5051773;28;20200;-73
2023/05/22 10:14:50;;;;;;;10.93;9.40;;;28.40;58.90;;;;;;5051685;28;20251;-72
2023/05/22 10:17:18;;;;;;;10.33;9.30;;;28.40;59.50;;;;;;5051239;28;20291;-72
2023/05/22 10:19:47;;;;;;;10.77;9.83;;;28.50;59.50;;;;;;5055541;28;20197;-72
2023/05/22 10:22:19;;;;;;;11.20;10.10;;;28.70;58.90;;;;;;5071393;28;20208;-72
2023/05/22 10:24:47;;;;;;;11.87;10.67;;;28.80;59.10;;;;;;5071530;28;20300;-72
2023/05/22 10:27:14;;;;;;;10.87;9.87;;;28.90;58.80;;;;;;5071246;28;20233;-74
2023/05/22 10:29:49;;;;;;;10.37;9.30;;;29.00;58.60;;;;;;5071294;28;20209;-71
2023/05/22 10:32:24;;;;;;;10.83;9.83;;;29.10;58.40;;;;;;5070735;28;20273;-73
2023/05/22 10:34:59;;;;;;;11.63;10.47;;;29.10;57.80;;;;;;5071471;28;20544;-74
2023/05/22 10:37:42;;;;;;;11.30;10.20;;;29.20;57.70;;;;;;5070460;28;20606;-72
2023/05/22 10:40:12;;;;;;;11.47;10.47;;;29.40;58.00;;;;;;5071129;28;20212;-73
2023/05/22 10:42:40;;;;;;;10.77;9.77;;;29.50;57.10;;;;;;5071083;28;20207;-71
2023/05/22 10:45:08;;;;;;;11.60;10.50;;;29.50;56.20;;;;;;5070894;28;20684;-71
2023/05/22 10:47:36;;;;;;;11.87;10.73;;;29.50;56.90;;;;;;5070219;28;20212;-71
2023/05/22 10:50:06;;;;;;;11.37;10.20;;;29.50;57.60;;;;;;5070875;28;20215;-71
2023/05/22 10:52:35;;;;;;;11.63;10.37;;;29.60;56.00;;;;;;5071003;28;20574;-71
2023/05/22 10:55:06;;;;;;;10.93;9.83;;;29.60;56.60;;;;;;5070654;28;20204;-71
2023/05/22 10:57:34;;;;;;;11.27;10.23;;;29.60;55.30;;;;;;5070766;28;20239;-72
2023/05/22 11:00:08;;;;;;;11.50;10.30;;;29.70;56.00;;;;;;5070441;28;20228;-72
2023/05/22 11:02:39;;;;;;;11.43;10.33;;;29.80;56.60;;;;;;5070851;28;20263;-73
2023/05/22 11:05:35;;;;;;;11.30;9.90;;;29.80;55.00;;;;;;5070735;28;20215;-72
2023/05/22 11:08:38;;;;;;;11.43;10.43;;;29.90;53.20;;;;;;5069974;28;20208;-72
2023/05/22 11:11:14;;;;;;;11.90;10.70;;;29.70;54.70;;;;;;5070433;28;20232;-72
2023/05/22 11:13:42;;;;;;;10.03;9.10;;;29.90;54.30;;;;;;5070566;28;20211;-73
2023/05/22 11:16:10;;;;;;;10.30;9.33;;;30.00;55.30;;;;;;5070319;28;20209;-72
2023/05/22 11:18:37;;;;;;;11.50;10.40;;;30.20;55.90;;;;;;5070145;28;20220;-72
2023/05/22 11:21:06;;;;;;;10.23;9.23;;;30.40;56.70;;;;;;5070503;28;20200;-72
2023/05/22 11:23:38;;;;;;;11.10;10.10;;;30.60;56.20;;;;;;5070213;28;20641;-73
2023/05/22 11:26:23;;;;;;;10.73;9.70;;;30.80;55.90;;;;;;5070334;28;20730;-72
2023/05/22 11:28:52;;;;;;;10.63;9.73;;;30.90;53.10;;;;;;5070095;28;20554;-71
2023/05/22 11:31:19;;;;;;;11.13;9.93;;;31.10;53.30;;;;;;5069846;28;20221;-72
2023/05/22 11:33:47;;;;;;;10.17;9.17;;;31.10;52.30;;;;;;5070466;28;20295;-73
2023/05/22 11:36:15;;;;;;;9.53;8.70;;;31.20;52.30;;;;;;5069994;28;20207;-72
2023/05/22 11:38:43;;;;;;;9.70;8.70;;;31.30;52.20;;;;;;5052086;28;20211;-71
2023/05/22 11:41:11;;;;;;;10.20;9.20;;;31.40;51.90;;;;;;5070179;28;20649;-71
2023/05/22 11:43:38;;;;;;;9.13;8.37;;;31.50;51.50;;;;;;5069902;28;20212;-71
2023/05/22 11:46:07;;;;;;;10.03;9.23;;;31.60;51.20;;;;;;5070234;28;20240;-72
2023/05/22 11:48:35;;;;;;;10.17;9.13;;;31.70;51.60;;;;;;5070650;28;20206;-72
2023/05/22 11:51:02;;;;;;;10.20;9.17;;;31.90;51.70;;;;;;5074225;28;20316;-72
2023/05/22 11:53:31;;;;;;;10.50;9.57;;;31.90;51.00;;;;;;5074590;28;20251;-71
2023/05/22 11:56:04;;;;;;;10.57;9.67;;;32.00;49.90;;;;;;5073969;28;20213;-73
2023/05/22 11:58:31;;;;;;;11.53;10.47;;;31.90;49.30;;;;;;5073767;28;20205;-71
2023/05/22 12:00:59;;;;;;;9.80;9.00;;;31.90;51.20;;;;;;5074234;28;20207;-73
2023/05/22 12:03:26;;;;;;;10.23;9.40;;;32.10;51.10;;;;;;5074208;28;20208;-72
2023/05/22 12:05:53;;;;;;;10.43;8.80;;;32.20;51.50;;;;;;5074037;28;20226;-72
2023/05/22 12:08:21;;;;;;;10.60;9.30;;;32.40;50.20;;;;;;5073750;28;20206;-72
2023/05/22 12:10:49;;;;;;;9.07;8.30;;;32.50;50.60;;;;;;5073910;28;20233;-73
2023/05/22 12:13:26;;;;;;;9.30;8.40;;;32.70;50.40;;;;;;5073810;28;20275;-72
2023/05/22 12:15:56;;;;;;;9.07;8.27;;;32.70;50.20;;;;;;5073815;28;20217;-71
2023/05/22 12:18:22;;;;;;;9.23;8.50;;;32.80;49.50;;;;;;5073489;28;20250;-72
2023/05/22 12:20:54;;;;;;;9.03;8.23;;;32.90;49.00;;;;;;5073440;28;20274;-72
2023/05/22 12:23:22;;;;;;;9.20;8.40;;;33.00;48.10;;;;;;5073786;28;20211;-72
2023/05/22 12:26:00;;;;;;;9.57;8.60;;;33.00;46.20;;;;;;5070655;28;20218;-71
2023/05/22 12:28:31;;;;;;;9.10;8.20;;;32.90;44.90;;;;;;5073298;28;20206;-72
2023/05/22 12:30:58;;;;;;;9.20;8.30;;;32.80;45.40;;;;;;5068895;28;20313;-72
2023/05/22 12:33:28;;;;;;;8.57;7.87;;;32.80;45.00;;;;;;5051835;28;20207;-72
2023/05/22 12:35:57;;;;;;;9.20;8.40;;;32.90;46.50;;;;;;5068909;28;20206;-71
2023/05/22 12:38:25;;;;;;;9.40;8.60;;;33.10;47.00;;;;;;5072012;28;20227;-73
2023/05/22 12:40:52;;;;;;;9.73;8.83;;;33.10;46.50;;;;;;5072713;28;20211;-71
2023/05/22 12:43:19;;;;;;;9.27;8.50;;;33.20;46.90;;;;;;5068393;28;20205;-71